Latest Coastal Weather Observations for Coolangatta

IDQ60701

Issued at 6:52 pm EST Sunday 24 July 2016 (issued every 10 minutes, with the page automatically refreshed every 10 minutes)

About coastal observations | Map of coastal stations | Coastal observations for QLD | Marine services | Other Formats
Station Details ID: 040717 Name: COOLANGATTA Lat: -28.17 Lon: 153.51 Height: 4.0 m
Data from the previous 72 hours. | See also: Recent months at Coolangatta
Date/Time
EST
Temp
°C
Wind Pressure Rain since
9am
mm
Weather Cloud Vis
km
Sea
Height
m
Swell
Dir  Spd
kts
Gust
kts
hPa Trend Height
m
Period
s
Dir
24/06:30pm 13.6 WSW 5 6 1014.4 - 0.0 - - 10 - - - -
24/06:00pm 14.7 W 3 5 1014.0 - 0.0 - - 10 - - - -
24/05:30pm 16.4 N 4 5 1013.6 - 0.0 - - 10 - - - -
24/05:00pm 17.9 N 7 9 1013.4 - 0.0 - - 10 - - - -
24/04:30pm 18.5 NNE 7 9 1013.0 - 0.0 - - 10 - - - -
24/04:00pm 19.0 NNE 8 10 1013.0 - 0.0 - - 10 - - - -
24/03:30pm 19.2 NNE 8 9 1013.0 - 0.0 - - 10 - - - -
24/03:00pm 19.1 NNE 8 10 1013.3 - 0.0 - - 10 - - - -
24/02:30pm 19.5 NNE 9 11 1013.3 - 0.0 - - 10 - - - -
24/02:00pm 19.3 NNE 8 10 1014.0 - 0.0 - - 10 - - - -
24/01:30pm 18.6 NNE 7 9 1014.4 - 0.0 - - 10 - - - -
24/01:00pm 18.8 NNE 7 9 1014.8 - 0.0 - - 10 - - - -
24/12:30pm 19.8 NNE 6 8 1015.1 - 0.0 - - 10 - - - -
24/12:00pm 19.4 NE 5 7 1015.6 - 0.0 - - 10 - - - -
24/11:30am 19.9 NE 7 9 1015.9 - 0.0 - - 10 - - - -
24/11:00am 19.1 S 6 8 1016.5 - 0.0 - - 10 - - - -
24/10:30am 19.1 SE 5 7 1016.6 - 0.0 - - 10 - - - -
24/10:00am 18.9 SE 5 7 1017.1 - 0.0 - - 10 - - - -
24/09:30am 18.1 WSW 6 7 1016.8 - 0.0 - - 10 - - - -
24/09:00am 17.1 SSE 4 5 1016.8 - 0.0 - - 10 - - - -
24/08:30am 16.1 SSW 3 5 1016.6 - 0.0 - - 10 - - - -
24/08:00am 13.2 SE 1 4 1016.4 - 0.0 - - 10 - - - -
24/07:30am 12.8 SSE 3 4 1016.1 - 0.0 - - 10 - - - -
24/07:00am 12.7 SE 3 4 1015.7 - 0.0 - - 10 - - - -
24/06:30am 12.6 SSW 1 4 1015.2 - 0.0 - - 10 - - - -
24/06:00am 13.2 SSW 5 6 1014.5 - 0.0 - Cloudy 10 - - - -
24/05:30am 12.6 SW 2 5 1014.1 - 0.0 - - 10 - - - -
24/05:00am 14.2 SSW 6 8 1013.7 - 0.0 - - 10 - - - -
24/04:30am 12.6 WSW 5 6 1013.5 - 0.0 - - 10 - - - -
24/04:00am 13.2 WSW 5 7 1013.3 - 0.0 - - 10 - - - -
24/03:30am 13.0 W 1 4 1013.6 - 0.0 - - 10 - - - -
24/03:00am 14.4 ESE 6 8 1013.4 - 0.0 - Mostly cloudy 10 - - - -
24/02:30am 13.9 SSW 4 7 1013.1 - 0.0 - - 10 - - - -
24/02:00am 14.4 S 6 8 1013.2 - 0.0 - - 10 - - - -
24/01:30am 12.7 S 5 6 1013.4 - 0.0 - - 10 - - - -
24/01:00am 12.7 WSW 5 6 1013.2 - 0.0 - - 10 - - - -
24/12:30am 12.3 SW 7 8 1013.0 - 0.0 - - 10 - - - -
24/12:00am 11.3 SW 6 7 1012.7 - 0.0 - - 10 - - - -
 
Date/Time
EST
Temp
°C
Wind Pressure Rain since
9am
mm
Weather Cloud Vis
km
Sea
Height
m
Swell
Dir  Spd
kts
Gust
kts
hPa Trend Height
m
Period
s
Dir
23/11:30pm 11.3 SSW 5 6 1012.6 - 0.0 - - 10 - - - -
23/11:00pm 11.6 CALM 0 3 1012.1 - 0.0 - - 10 - - - -
23/10:30pm 13.6 S 4 6 1011.9 - 0.0 - - 10 - - - -
23/10:00pm 16.6 SW 5 7 1011.8 - 0.0 - - 10 - - - -
23/09:30pm 16.8 SW 7 8 1011.6 - 0.0 - - 10 - - - -
23/09:00pm 18.4 WSW 7 8 1011.4 - 0.0 - - 10 - - - -
23/08:30pm 18.7 WSW 3 4 1011.3 - 0.0 - - 10 - - - -
23/08:00pm 20.4 SSW 6 9 1010.9 - 0.0 - - 10 - - - -
23/07:30pm 21.7 WNW 9 14 1010.0 - 0.0 - - 10 - - - -
23/07:00pm 22.5 WNW 5 6 1009.4 - 0.0 - - 10 - - - -
23/06:30pm 23.5 W 7 11 1009.3 - 0.0 - - 10 - - - -
23/06:00pm 24.6 WNW 9 14 1008.2 - 0.0 - Clear 10 - - - -
23/05:30pm 24.5 WNW 10 16 1007.9 - 0.0 - - 10 - - - -
23/05:00pm 25.8 WNW 12 19 1007.4 - 0.0 - - 10 - - - -
23/04:30pm 26.8 WNW 11 16 1007.2 - 0.0 - - 10 - - - -
23/04:00pm 28.0 WNW 10 19 1006.8 - 0.0 - - 10 - - - -
23/03:30pm 28.4 WNW 13 19 1006.5 - 0.0 - - 10 - - - -
23/03:00pm 28.9 W 10 14 1006.2 - 0.0 - - 10 - - - -
23/02:30pm 29.0 WNW 14 23 1005.9 - 0.0 - Partly cloudy 10 - - - -
23/02:00pm 29.0 WNW 14 21 1005.9 - 0.0 - - 10 - - - -
23/01:49pm 28.8 W 14 25 1005.9 - 0.0 - - 10 - - - -
23/01:30pm 29.2 WNW 10 16 1005.9 - 0.0 - - 10 - - - -
23/01:00pm 28.9 WNW 14 21 1006.0 - 0.0 - - 10 - - - -
23/12:30pm 28.7 WNW 13 23 1006.1 - 0.0 - - 10 - - - -
23/12:00pm 28.6 W 12 22 1006.5 - 0.0 - Mostly cloudy 10 - - - -
23/11:30am 28.2 WNW 9 16 1006.8 - 0.0 - - 10 - - - -
23/11:00am 27.6 NW 8 14 1007.2 - 0.0 - Partly cloudy 10 - - - -
23/10:30am 26.5 NW 13 19 1007.4 - 0.0 - - 10 - - - -
23/10:00am 24.9 N 13 17 1007.6 - 0.0 - - 10 - - - -
23/09:30am 24.0 N 15 18 1007.9 - 0.0 - - 10 - - - -
23/09:00am 23.1 N 14 17 1008.0 - 0.0 - - 10 - - - -
23/08:30am 22.1 NE 7 9 1008.2 - 0.0 - - 10 - - - -
23/08:00am 21.3 NNE 5 6 1008.7 - 0.0 - - 10 - - - -
23/07:30am 18.8 N 2 5 1008.6 - 0.0 - - 10 - - - -
23/07:00am 16.5 W 1 5 1008.5 - 0.0 - - 10 - - - -
23/06:30am 18.3 N 6 8 1008.2 - 0.0 - - 10 - - - -
23/06:00am 18.9 N 10 12 1008.2 - 0.0 - - 10 - - - -
23/05:30am 17.9 N 8 10 1007.9 - 0.0 - - 10 - - - -
23/05:29am 17.7 N 7 10 1007.9 - 0.0 - - 10 - - - -
23/05:00am 15.4 ESE 1 4 1008.0 - 0.0 - - 0.9 - - - -
23/04:30am 15.6 SE 1 4 1007.9 - 0.0 - - 1 - - - -
23/04:00am 15.3 CALM 0 1 1007.9 - 0.0 - - 0.5 - - - -
23/03:30am 15.7 CALM 0 0 1008.0 - 0.0 - - 0.4 - - - -
23/03:00am 16.3 W 3 5 1008.3 - 0.0 - - 3 - - - -
23/02:50am 16.4 W 4 5 1008.5 - 0.0 - - 6 - - - -
23/02:45am 16.6 WSW 4 6 1008.6 - 0.0 - - 7 - - - -
23/02:30am 16.8 WSW 4 6 1008.7 - 0.0 - - 4 - - - -
23/02:00am 16.5 WNW 4 6 1008.9 - 0.0 - - 2 - - - -
23/01:30am 16.4 WNW 3 4 1009.3 - 0.0 - - 2 - - - -
23/01:18am 16.6 WNW 3 5 1009.4 - 0.0 - - 6 - - - -
23/01:17am 16.6 WNW 3 4 1009.4 - 0.0 - - 7 - - - -
23/01:00am 16.3 WSW 2 6 1009.6 - 0.0 - - 2 - - - -
23/12:39am 17.3 SW 1 3 1009.8 - 0.0 - - 6 - - - -
23/12:30am 17.3 SW 3 6 1009.8 - 0.0 - - 9 - - - -
23/12:22am 17.3 WSW 4 6 1010.0 - 0.0 - - 9 - - - -
23/12:00am 17.0 NW 3 4 1009.8 - 0.0 - - 9 - - - -
 
Date/Time
EST
Temp
°C
Wind Pressure Rain since
9am
mm
Weather Cloud Vis
km
Sea
Height
m
Swell
Dir  Spd
kts
Gust
kts
hPa Trend Height
m
Period
s
Dir
22/11:30pm 17.6 CALM 0 3 1010.4 - 0.0 - - 3 - - - -
22/11:00pm 18.4 CALM 0 0 1010.6 - 0.0 - - 4 - - - -
22/10:55pm 18.5 CALM 0 2 1010.7 - 0.0 - - 5 - - - -
22/10:30pm 19.8 NW 4 5 1011.0 - 0.0 - - 10 - - - -
22/10:00pm 20.2 NNW 7 9 1011.1 - 0.0 - - 10 - - - -
22/09:30pm 20.8 NW 7 10 1011.4 - 0.0 - - 10 - - - -
22/09:00pm 20.8 NNW 7 9 1011.3 - 0.0 - - 10 - - - -
22/08:30pm 21.1 NNW 8 11 1011.3 - 0.0 - - 10 - - - -
22/08:00pm 21.2 NNW 9 12 1011.4 - 0.0 - - 10 - - - -
22/07:30pm 20.1 N 5 6 1011.4 - 0.0 - - 10 - - - -
22/07:00pm 20.6 NNW 8 10 1011.3 - 0.0 - - 10 - - - -
22/06:30pm 21.2 NNW 7 9 1011.1 - 0.0 - - 10 - - - -
22/06:00pm 21.0 NNW 9 11 1010.9 - 0.0 - - 10 - - - -
22/05:30pm 21.1 N 9 11 1010.6 - 0.0 - - 10 - - - -
22/05:00pm 21.5 N 10 12 1010.2 - 0.0 - - 10 - - - -
22/04:30pm 22.4 N 11 14 1010.1 - 0.0 - - 10 - - - -
22/04:00pm 23.0 N 15 17 1010.0 - 0.0 - - 10 - - - -
22/03:30pm 23.2 N 15 22 1009.9 - 0.0 - - 10 - - - -
22/03:00pm 23.2 N 15 18 1010.0 - 0.0 - - 10 - - - -
22/02:30pm 23.6 NNE 12 15 1010.3 - 0.0 - - 10 - - - -
22/02:00pm 23.3 NNE 11 14 1010.7 - 0.0 - - 10 - - - -
22/01:30pm 23.9 NNE 11 15 1011.2 - 0.0 - - 10 - - - -
22/01:00pm 24.1 N 12 15 1011.7 - 0.0 - - 10 - - - -
22/12:30pm 23.7 N 12 15 1012.3 - 0.0 - - 10 - - - -
22/12:00pm 24.2 N 13 15 1013.1 - 0.0 - - 10 - - - -
22/11:30am 23.0 N 10 13 1013.7 - 0.0 - - 10 - - - -
22/11:00am 22.3 N 9 11 1014.4 - 0.0 - Partly cloudy 10 - - - -
22/10:30am 22.8 N 9 11 1014.8 - 0.0 - - 10 - - - -
22/10:00am 22.5 N 11 12 1015.0 - 0.0 - - 10 - - - -
22/09:30am 22.1 N 7 9 1015.4 - 0.0 - - 10 - - - -
22/09:00am 20.8 N 7 8 1015.5 - 0.0 - - 10 - - - -
22/08:30am 19.5 CALM 0 0 1015.5 - 0.0 - - 10 - - - -
22/08:00am 17.8 SSW 1 4 1015.5 - 0.0 - - 10 - - - -
22/07:30am 16.6 CALM 0 0 1015.4 - 0.0 - - 10 - - - -
22/07:14am 15.8 CALM 0 0 1015.3 - 0.0 - - 10 - - - -
22/07:00am 15.3 SSW 2 4 1015.3 - 0.0 - - 3 - - - -
22/06:30am 15.4 WSW 1 3 1015.2 - 0.0 - - 2 - - - -
22/06:00am 15.2 WSW 1 3 1015.1 - 0.0 - - 2 - - - -
22/05:30am 15.2 W 3 4 1014.8 - 0.0 - - 6 - - - -
22/05:00am 15.4 WSW 3 3 1014.7 - 0.0 - - 1 - - - -
22/04:41am 15.9 WSW 4 5 1014.7 - 0.0 - - 6 - - - -
22/04:30am 16.1 WSW 4 5 1014.7 - 0.0 - - 10 - - - -
22/04:24am 16.2 WSW 4 5 1014.8 - 0.0 - - 10 - - - -
22/04:00am 16.3 WSW 3 4 1015.0 - 0.0 - - 3 - - - -
22/03:51am 16.3 WSW 3 4 1015.1 - 0.0 - - 6 - - - -
22/03:30am 16.3 WSW 3 4 1015.3 - 0.0 - - 8 - - - -
22/03:29am 16.3 WSW 3 4 1015.4 - 0.0 - - 8 - - - -
22/03:00am 16.8 SW 3 4 1015.9 - 0.0 - - 2 - - - -
22/02:56am 16.8 WSW 3 4 1015.9 - 0.0 - - 6 - - - -
22/02:30am 16.9 SW 3 5 1015.9 - 0.0 - - - - - - -
22/02:00am 17.0 SSW 3 4 1015.9 - 0.0 - - - - - - -
22/01:30am 17.5 SW 3 4 1016.2 - 0.0 - - - - - - -
22/01:00am 18.5 CALM 0 0 1016.5 - 0.0 - - - - - - -
22/12:30am 18.8 SSW 1 3 1016.9 - 0.0 - - - - - - -
22/12:00am 18.9 SW 3 4 1017.1 - 0.0 - - - - - - -
 
Date/Time
EST
Temp
°C
Wind Pressure Rain since
9am
mm
Weather Cloud Vis
km
Sea
Height
m
Swell
Dir  Spd
kts
Gust
kts
hPa Trend Height
m
Period
s
Dir
21/11:30pm 18.9 WSW 3 3 1017.3 - 0.0 - Partly cloudy - - - - -
21/11:00pm 18.9 WSW 4 5 1017.2 - 0.0 - Partly cloudy - - - - -
21/10:30pm 19.0 SW 5 6 1017.1 - 0.0 - Cloudy - - - - -
21/10:00pm 18.9 SW 5 6 1017.0 - 0.0 - Cloudy - - - - -
21/09:30pm 18.7 SW 4 5 1016.9 - 0.0 - Partly cloudy 10 - - - -
21/09:00pm 18.2 WSW 3 4 1016.8 - 0.0 - Cloudy 10 - - - -
21/08:30pm 18.3 SSW 3 3 1016.8 - 0.0 - Partly cloudy 10 - - - -
21/08:00pm 18.6 SSW 3 4 1016.9 - 0.0 - Cloudy 10 - - - -
21/07:30pm 18.6 SW 3 5 1016.7 - 0.0 - Partly cloudy 10 - - - -
21/07:00pm 18.9 CALM 0 3 1016.4 - 0.0 - Partly cloudy 10 - - - -

Other Formats:

Comma delimited format used in spreadsheet applications
http://www.bom.gov.au/fwo/IDQ60701/IDQ60701.94592.axf

JavaScript Object Notation format (JSON) in row-major order
http://www.bom.gov.au/fwo/IDQ60701/IDQ60701.94592.json